createdAt,value
2018-06-22T00:01:48.075Z,12.71
2018-06-22T00:04:16.713Z,12.66
2018-06-22T00:06:45.403Z,12.60
2018-06-22T00:09:15.757Z,12.63
2018-06-22T00:11:45.610Z,12.63
2018-06-22T00:14:15.384Z,12.43
2018-06-22T00:16:44.571Z,12.16
2018-06-22T00:19:13.546Z,12.09
2018-06-22T00:21:42.129Z,12.13
2018-06-22T00:24:11.054Z,12.15
2018-06-22T00:26:39.671Z,12.11
2018-06-22T00:29:08.423Z,12.09
2018-06-22T00:31:37.016Z,12.10
2018-06-22T00:34:06.636Z,12.04
2018-06-22T00:36:36.251Z,12.04
2018-06-22T00:39:06.626Z,12.12
2018-06-22T00:41:35.557Z,12.08
2018-06-22T00:44:04.211Z,12.00
2018-06-22T00:46:33.029Z,12.07
2018-06-22T00:49:01.776Z,12.17
2018-06-22T00:51:30.434Z,12.17
2018-06-22T00:54:12.182Z,12.09
2018-06-22T00:56:40.776Z,11.94
2018-06-22T00:59:09.890Z,11.92
2018-06-22T01:01:39.157Z,11.84
2018-06-22T01:04:08.552Z,11.81
2018-06-22T01:06:37.513Z,11.73
2018-06-22T01:09:09.870Z,11.79
2018-06-22T01:11:38.556Z,11.72
2018-06-22T01:14:08.011Z,11.70
2018-06-22T01:16:37.020Z,11.72
2018-06-22T01:19:07.074Z,11.61
2018-06-22T01:21:35.713Z,11.77
2018-06-22T01:24:04.614Z,11.71
2018-06-22T01:26:33.756Z,11.74
2018-06-22T01:29:07.636Z,11.72
2018-06-22T01:31:36.368Z,11.64
2018-06-22T01:34:05.121Z,11.62
2018-06-22T01:36:33.820Z,11.74
2018-06-22T01:39:02.519Z,11.62
2018-06-22T01:41:31.138Z,11.51
2018-06-22T01:43:59.780Z,11.45
2018-06-22T01:46:28.370Z,11.51
2018-06-22T01:48:57.330Z,11.34
2018-06-22T01:51:26.171Z,11.33
2018-06-22T01:53:55.392Z,11.31
2018-06-22T01:56:23.948Z,11.29
2018-06-22T01:58:53.415Z,11.34
2018-06-22T02:01:22.348Z,11.30
2018-06-22T02:03:51.260Z,11.31
2018-06-22T02:06:19.872Z,11.32
2018-06-22T02:08:48.515Z,11.34
2018-06-22T02:11:17.390Z,11.25
2018-06-22T02:13:46.018Z,11.18
2018-06-22T02:16:15.446Z,11.20
2018-06-22T02:18:44.089Z,11.18
2018-06-22T02:21:12.689Z,11.12
2018-06-22T02:23:41.906Z,11.13
2018-06-22T02:26:10.794Z,11.24
2018-06-22T02:28:39.536Z,11.33
2018-06-22T02:31:08.452Z,11.33
2018-06-22T02:33:37.148Z,11.34
2018-06-22T02:36:05.769Z,11.35
2018-06-22T02:38:34.430Z,11.44
2018-06-22T02:41:07.171Z,11.46
2018-06-22T02:43:36.540Z,11.35
2018-06-22T02:46:05.284Z,11.39
2018-06-22T02:48:34.224Z,11.52
2018-06-22T02:51:02.873Z,11.67
2018-06-22T02:53:31.511Z,11.63
2018-06-22T02:56:01.505Z,11.48
2018-06-22T02:58:31.680Z,11.44
2018-06-22T03:01:00.803Z,11.44
2018-06-22T03:03:29.428Z,11.49
2018-06-22T03:05:58.101Z,11.54
2018-06-22T03:08:26.980Z,11.76
2018-06-22T03:10:56.178Z,11.61
2018-06-22T03:13:24.822Z,11.49
2018-06-22T03:15:53.452Z,11.30
2018-06-22T03:18:22.343Z,11.33
2018-06-22T03:20:50.963Z,11.31
2018-06-22T03:23:19.978Z,11.29
2018-06-22T03:25:48.872Z,11.32
2018-06-22T03:28:17.802Z,11.23
2018-06-22T03:30:46.752Z,11.41
2018-06-22T03:33:15.652Z,11.31
2018-06-22T03:35:44.573Z,11.39
2018-06-22T03:38:13.248Z,11.48
2018-06-22T03:40:41.894Z,11.58
2018-06-22T03:43:10.528Z,11.53
2018-06-22T03:45:39.462Z,11.46
2018-06-22T03:48:08.082Z,11.40
2018-06-22T03:50:36.668Z,11.46
2018-06-22T03:53:05.279Z,11.59
2018-06-22T03:55:33.964Z,11.68
2018-06-22T03:58:02.683Z,11.72
2018-06-22T04:00:31.325Z,11.70
2018-06-22T04:02:59.967Z,11.65
2018-06-22T04:05:28.679Z,11.61
2018-06-22T04:07:57.305Z,11.55
2018-06-22T04:10:25.943Z,11.62
2018-06-22T04:12:54.585Z,11.63
2018-06-22T04:15:23.484Z,11.64
2018-06-22T04:17:53.967Z,11.61
2018-06-22T04:20:23.743Z,11.67
2018-06-22T04:22:53.244Z,11.70
2018-06-22T04:25:23.735Z,11.68
2018-06-22T04:27:53.000Z,11.64
2018-06-22T04:30:21.633Z,11.68
2018-06-22T04:32:50.980Z,11.66
2018-06-22T04:35:19.644Z,11.75
2018-06-22T04:37:48.542Z,11.71
2018-06-22T04:40:17.423Z,11.63
2018-06-22T04:42:46.050Z,11.66
2018-06-22T04:45:15.577Z,11.79
2018-06-22T04:47:44.632Z,11.71
2018-06-22T04:50:13.533Z,11.77
2018-06-22T04:52:42.197Z,11.89
2018-06-22T04:55:11.307Z,11.95
2018-06-22T04:57:40.581Z,11.85
2018-06-22T05:00:09.911Z,11.88
2018-06-22T05:02:38.504Z,11.91
2018-06-22T05:05:07.125Z,11.88
2018-06-22T05:07:35.763Z,12.07
2018-06-22T05:10:04.953Z,12.19
2018-06-22T05:12:33.951Z,12.19
2018-06-22T05:15:02.981Z,12.18
2018-06-22T05:17:33.408Z,12.25
2018-06-22T05:20:02.107Z,12.15
2018-06-22T05:22:30.788Z,12.16
2018-06-22T05:24:59.555Z,12.13
2018-06-22T05:27:28.234Z,12.14
2018-06-22T05:29:56.852Z,12.18
2018-06-22T05:32:25.506Z,12.21
2018-06-22T05:34:54.504Z,12.40
2018-06-22T05:37:24.679Z,12.20
2018-06-22T05:39:53.345Z,12.40
2018-06-22T05:42:21.983Z,12.23
2018-06-22T05:44:50.943Z,12.32
2018-06-22T05:47:19.656Z,12.43
2018-06-22T05:49:48.800Z,12.40
2018-06-22T05:52:18.269Z,12.49
2018-06-22T05:54:47.462Z,12.62
2018-06-22T05:57:17.326Z,12.70
2018-06-22T05:59:46.771Z,12.76
2018-06-22T06:02:15.471Z,12.53
2018-06-22T06:04:44.451Z,12.38
2018-06-22T06:07:13.640Z,12.31
2018-06-22T06:09:42.252Z,12.36
2018-06-22T06:12:11.133Z,12.59
2018-06-22T06:14:41.425Z,12.70
2018-06-22T06:17:10.817Z,12.65
2018-06-22T06:19:39.684Z,12.65
2018-06-22T06:22:08.749Z,12.75
2018-06-22T06:24:37.526Z,12.97
2018-06-22T06:27:06.603Z,12.96
2018-06-22T06:29:35.237Z,12.98
2018-06-22T06:32:03.897Z,12.71
2018-06-22T06:34:32.517Z,12.79
2018-06-22T06:37:02.314Z,12.91
2018-06-22T06:39:31.151Z,12.88
2018-06-22T06:41:59.765Z,12.83
2018-06-22T06:44:28.929Z,12.83
2018-06-22T06:46:57.533Z,12.69
2018-06-22T06:49:26.404Z,12.49
2018-06-22T06:51:55.006Z,12.49
2018-06-22T06:54:23.679Z,12.67
2018-06-22T06:56:52.627Z,12.93
2018-06-22T06:59:21.253Z,13.12
2018-06-22T07:01:50.188Z,13.25
2018-06-22T07:04:18.859Z,13.44
2018-06-22T07:06:47.581Z,13.53
2018-06-22T07:09:16.394Z,13.59
2018-06-22T07:11:45.137Z,13.80
2018-06-22T07:14:13.768Z,13.57
2018-06-22T07:16:42.429Z,13.62
2018-06-22T07:19:11.193Z,13.40
2018-06-22T07:21:40.317Z,13.36
2018-06-22T07:24:09.190Z,13.55
2018-06-22T07:26:38.145Z,13.54
2018-06-22T07:29:06.832Z,13.31
2018-06-22T07:31:35.528Z,13.27
2018-06-22T07:34:04.138Z,13.11
2018-06-22T07:36:32.795Z,13.38
2018-06-22T07:39:01.946Z,13.59
2018-06-22T07:41:30.706Z,13.57
2018-06-22T07:43:59.509Z,13.66
2018-06-22T07:46:28.800Z,13.52
2018-06-22T07:49:00.466Z,13.58
2018-06-22T07:51:29.482Z,13.54
2018-06-22T07:53:58.470Z,13.40
2018-06-22T07:56:27.728Z,13.31
2018-06-22T07:58:56.960Z,13.22
2018-06-22T08:01:25.945Z,13.41
2018-06-22T08:03:54.857Z,13.62
2018-06-22T08:06:24.201Z,13.82
2018-06-22T08:08:53.050Z,13.99
2018-06-22T08:11:21.911Z,14.24
2018-06-22T08:13:50.537Z,13.79
2018-06-22T08:16:19.370Z,13.91
2018-06-22T08:18:48.369Z,13.88
2018-06-22T08:21:17.082Z,13.69
2018-06-22T08:23:45.796Z,13.72
2018-06-22T08:26:14.451Z,13.87
2018-06-22T08:28:43.196Z,13.91
2018-06-22T08:31:12.401Z,14.06
2018-06-22T08:33:41.000Z,14.11
2018-06-22T08:36:09.668Z,14.25
2018-06-22T08:38:38.271Z,14.23
2018-06-22T08:41:07.706Z,14.33
2018-06-22T08:43:36.614Z,14.47
2018-06-22T08:46:05.392Z,14.52
2018-06-22T08:48:34.206Z,14.69
2018-06-22T08:51:02.842Z,14.80
2018-06-22T08:53:31.463Z,14.87
2018-06-22T08:56:00.130Z,14.76
2018-06-22T08:58:28.858Z,14.57
2018-06-22T09:00:57.881Z,14.64
2018-06-22T09:03:26.549Z,14.95
2018-06-22T09:05:55.420Z,15.41
2018-06-22T09:08:24.227Z,16.16
2018-06-22T09:10:52.944Z,16.37
2018-06-22T09:13:21.706Z,17.11
2018-06-22T09:15:50.676Z,17.95
2018-06-22T09:18:20.006Z,18.12
2018-06-22T09:20:48.669Z,18.34
2018-06-22T09:23:17.420Z,17.94
2018-06-22T09:25:46.153Z,17.29
2018-06-22T09:28:14.766Z,16.90
2018-06-22T09:30:43.421Z,15.76
2018-06-22T09:33:12.157Z,15.70
2018-06-22T09:35:40.829Z,15.53
2018-06-22T09:38:09.451Z,15.45
2018-06-22T09:40:38.232Z,15.07
2018-06-22T09:43:06.868Z,14.97
2018-06-22T09:45:35.925Z,14.78
2018-06-22T09:48:05.008Z,14.48
2018-06-22T09:50:34.341Z,14.47
2018-06-22T09:53:03.012Z,14.04
2018-06-22T09:55:31.664Z,14.00
2018-06-22T09:58:00.271Z,13.85
2018-06-22T10:00:29.182Z,13.68
2018-06-22T10:02:57.957Z,13.81
2018-06-22T10:05:28.974Z,13.79
2018-06-22T10:07:57.996Z,13.93
2018-06-22T10:10:26.631Z,13.99
2018-06-22T10:12:55.345Z,14.27
2018-06-22T10:15:24.236Z,14.82
2018-06-22T10:17:52.898Z,15.50
2018-06-22T10:20:22.173Z,15.79
2018-06-22T10:22:51.145Z,16.16
2018-06-22T10:25:19.742Z,16.37
2018-06-22T10:27:48.390Z,16.52
2018-06-22T10:30:17.037Z,16.07
2018-06-22T10:32:46.023Z,15.57
2018-06-22T10:35:14.667Z,15.49
2018-06-22T10:37:43.272Z,15.83
2018-06-22T10:40:11.953Z,16.39
2018-06-22T10:42:40.710Z,16.57
2018-06-22T10:45:09.733Z,16.79
2018-06-22T10:47:38.407Z,17.29
2018-06-22T10:50:07.855Z,17.28
2018-06-22T10:52:36.785Z,17.72
2018-06-22T10:55:05.468Z,17.90
2018-06-22T10:57:34.579Z,18.40
2018-06-22T11:00:03.548Z,18.31
2018-06-22T11:02:32.390Z,18.22
2018-06-22T11:05:01.070Z,18.10
2018-06-22T11:07:30.330Z,18.10
2018-06-22T11:09:59.574Z,17.65
2018-06-22T11:12:29.171Z,17.36
2018-06-22T11:14:58.230Z,17.04
2018-06-22T11:17:27.582Z,15.64
2018-06-22T11:19:56.941Z,14.35
2018-06-22T11:22:25.678Z,13.56
2018-06-22T11:24:55.112Z,13.27
2018-06-22T11:27:24.489Z,13.00
2018-06-22T11:29:53.272Z,12.88
2018-06-22T11:32:22.262Z,12.82
2018-06-22T11:34:51.278Z,12.71
2018-06-22T11:37:20.079Z,13.19
2018-06-22T11:39:48.802Z,13.71
2018-06-22T11:42:17.460Z,13.74
2018-06-22T11:44:47.049Z,14.00
2018-06-22T11:47:16.773Z,15.60
2018-06-22T11:49:46.383Z,17.23
2018-06-22T11:52:15.430Z,18.35
2018-06-22T11:54:44.190Z,18.15
2018-06-22T11:57:12.824Z,17.89
2018-06-22T11:59:41.851Z,17.72
2018-06-22T12:02:10.518Z,18.30
2018-06-22T12:04:39.338Z,19.62
2018-06-22T12:07:08.397Z,21.05
2018-06-22T12:09:37.321Z,21.37
2018-06-22T12:12:06.004Z,21.58
2018-06-22T12:14:35.057Z,23.23
2018-06-22T12:17:07.803Z,25.28
2018-06-22T12:19:39.949Z,25.24
2018-06-22T12:22:09.259Z,25.82
2018-06-22T12:24:38.088Z,24.55
2018-06-22T12:27:06.756Z,23.06
2018-06-22T12:29:35.824Z,25.23
2018-06-22T12:32:04.704Z,26.91
2018-06-22T12:34:34.591Z,28.57
2018-06-22T12:37:03.513Z,28.85
2018-06-22T12:39:32.322Z,31.50
2018-06-22T12:42:01.014Z,29.01
2018-06-22T12:44:29.664Z,26.36
2018-06-22T12:46:58.411Z,23.54
2018-06-22T12:49:27.080Z,22.73
2018-06-22T12:54:23.535Z,21.03
2018-06-22T12:56:52.412Z,20.31
2018-06-22T12:59:21.113Z,21.92
2018-06-22T13:01:49.879Z,24.37
2018-06-22T13:04:18.639Z,27.94
2018-06-22T13:06:47.933Z,28.91
2018-06-22T13:09:16.635Z,28.04
2018-06-22T13:11:45.276Z,25.71
2018-06-22T13:14:13.942Z,27.18
2018-06-22T13:16:42.641Z,28.59
2018-06-22T13:19:11.273Z,31.36
2018-06-22T13:21:52.080Z,30.18
2018-06-22T13:24:22.248Z,28.34
2018-06-22T13:26:51.399Z,26.67
2018-06-22T13:29:20.295Z,28.73
2018-06-22T13:31:49.587Z,30.07
2018-06-22T13:34:18.561Z,28.07
2018-06-22T13:36:48.114Z,26.31
2018-06-22T13:39:18.222Z,24.56
2018-06-22T13:41:47.205Z,24.75
2018-06-22T13:44:15.822Z,26.03
2018-06-22T13:46:45.016Z,29.49
2018-06-22T13:49:14.352Z,32.68
2018-06-22T13:51:43.382Z,34.64
2018-06-22T13:54:12.127Z,33.19
2018-06-22T13:56:40.868Z,31.47
2018-06-22T13:59:09.821Z,29.76
2018-06-22T14:01:38.945Z,27.43
2018-06-22T14:04:12.859Z,25.89
2018-06-22T14:06:46.833Z,26.77
2018-06-22T14:09:16.421Z,26.38
2018-06-22T14:11:45.122Z,25.07
2018-06-22T14:14:14.122Z,23.75
2018-06-22T14:16:43.272Z,22.88
2018-06-22T14:19:11.943Z,21.91
2018-06-22T14:21:41.249Z,21.01
2018-06-22T14:24:10.208Z,20.70
2018-06-22T14:26:39.243Z,20.45
2018-06-22T14:29:07.938Z,20.04
2018-06-22T14:31:36.868Z,19.82
2018-06-22T14:34:05.663Z,19.64
2018-06-22T14:36:34.337Z,19.63
2018-06-22T14:39:03.049Z,19.56
2018-06-22T14:41:31.742Z,19.41
2018-06-22T14:44:00.463Z,19.46
2018-06-22T14:46:29.155Z,19.39
2018-06-22T14:48:58.879Z,19.55
2018-06-22T14:51:28.322Z,19.52
2018-06-22T14:54:02.197Z,19.76
2018-06-22T14:56:36.898Z,19.69
2018-06-22T14:59:12.208Z,19.82
2018-06-22T15:01:46.356Z,19.93
2018-06-22T15:04:20.789Z,19.59
2018-06-22T15:06:55.218Z,19.46
2018-06-22T15:09:24.375Z,19.14
2018-06-22T15:11:53.398Z,19.03
2018-06-22T15:14:23.257Z,18.96
2018-06-22T15:16:53.070Z,19.47
2018-06-22T15:19:22.124Z,19.78
2018-06-22T15:21:53.242Z,19.81
2018-06-22T15:24:22.036Z,19.83
2018-06-22T15:26:51.042Z,19.61
2018-06-22T15:29:20.002Z,19.63
2018-06-22T15:31:49.241Z,19.51
2018-06-22T15:34:23.071Z,19.66
2018-06-22T15:36:56.844Z,19.72
2018-06-22T15:39:30.719Z,19.89
2018-06-22T15:42:04.562Z,20.12
2018-06-22T15:44:38.866Z,20.14
2018-06-22T15:47:12.747Z,20.39
2018-06-22T15:49:46.622Z,20.16
2018-06-22T15:52:20.461Z,19.87
2018-06-22T15:54:55.023Z,19.89
2018-06-22T15:57:24.113Z,20.12
2018-06-22T15:59:52.799Z,20.20
2018-06-22T16:02:27.097Z,20.19
2018-06-22T16:04:58.429Z,20.22
2018-06-22T16:07:27.433Z,20.05
2018-06-22T16:10:01.245Z,19.97
2018-06-22T16:12:36.551Z,19.72
2018-06-22T16:15:12.626Z,19.54
2018-06-22T16:17:46.390Z,19.32
2018-06-22T16:20:20.671Z,19.35
2018-06-22T16:22:54.560Z,19.59
2018-06-22T16:25:28.351Z,19.73
2018-06-22T16:27:59.727Z,19.62
2018-06-22T16:30:28.969Z,19.24
2018-06-22T16:32:59.244Z,18.95
2018-06-22T16:35:29.629Z,18.67
2018-06-22T16:37:58.621Z,18.46
2018-06-22T16:40:27.269Z,18.35
2018-06-22T16:42:55.949Z,18.30
2018-06-22T16:45:24.871Z,18.45
2018-06-22T16:47:53.472Z,18.47
2018-06-22T16:50:22.271Z,18.38
2018-06-22T16:52:51.209Z,18.41
2018-06-22T16:55:19.908Z,18.48
2018-06-22T16:57:48.595Z,18.32
2018-06-22T17:00:17.255Z,18.38
2018-06-22T17:02:46.000Z,18.21
2018-06-22T17:05:14.846Z,18.18
2018-06-22T17:07:48.513Z,18.27
2018-06-22T17:11:22.304Z,18.31
2018-06-22T17:13:56.025Z,18.34
2018-06-22T17:16:30.080Z,18.43
2018-06-22T17:19:00.094Z,18.46
2018-06-22T17:21:29.758Z,18.43
2018-06-22T17:23:58.484Z,18.47
2018-06-22T17:26:27.086Z,18.52
2018-06-22T17:29:01.666Z,18.52
2018-06-22T17:31:31.125Z,18.37
2018-06-22T17:33:59.858Z,18.14
2018-06-22T17:36:28.836Z,18.10
2018-06-22T17:38:57.782Z,18.15
2018-06-22T17:41:26.469Z,18.11
2018-06-22T17:43:55.106Z,18.03
2018-06-22T17:46:23.804Z,18.04
2018-06-22T17:48:52.830Z,18.10
2018-06-22T17:51:21.498Z,17.97
2018-06-22T17:53:50.287Z,17.98
2018-06-22T17:56:32.313Z,17.94
2018-06-22T17:59:06.225Z,17.89
2018-06-22T18:01:40.100Z,17.74
2018-06-22T18:04:14.043Z,17.63
2018-06-22T18:06:47.862Z,17.63
2018-06-22T18:09:21.704Z,17.59
2018-06-22T18:11:55.481Z,17.53
2018-06-22T18:14:24.278Z,17.73
2018-06-22T18:16:52.922Z,17.88
2018-06-22T18:19:21.579Z,17.92
2018-06-22T18:21:50.539Z,17.91
2018-06-22T18:24:19.194Z,17.90
2018-06-22T18:26:47.950Z,17.95
2018-06-22T18:29:16.619Z,17.88
2018-06-22T18:31:45.241Z,17.93
2018-06-22T18:34:13.920Z,17.80
2018-06-22T18:36:42.589Z,17.91
2018-06-22T18:39:12.862Z,17.87
2018-06-22T18:41:41.832Z,17.84
2018-06-22T18:44:14.592Z,17.90
2018-06-22T18:46:43.434Z,17.88
2018-06-22T18:49:12.242Z,17.80
2018-06-22T18:51:41.196Z,17.74
2018-06-22T18:54:15.144Z,17.61
2018-06-22T18:56:49.130Z,17.62
2018-06-22T18:59:22.852Z,17.66
2018-06-22T19:01:56.582Z,17.61
2018-06-22T19:04:25.381Z,17.64
2018-06-22T19:06:54.118Z,17.49
2018-06-22T19:09:22.989Z,17.22
2018-06-22T19:11:51.845Z,17.33
2018-06-22T19:14:20.513Z,17.28
2018-06-22T19:16:49.625Z,17.26
2018-06-22T19:19:18.661Z,17.26
2018-06-22T19:21:48.693Z,17.29
2018-06-22T19:24:21.064Z,17.26
2018-06-22T19:26:51.190Z,17.24
2018-06-22T19:29:21.367Z,17.18
2018-06-22T19:31:50.527Z,17.19
2018-06-22T19:34:23.400Z,17.25
2018-06-22T19:36:52.218Z,17.13
2018-06-22T19:39:20.949Z,17.11
2018-06-22T19:41:49.653Z,17.07
2018-06-22T19:44:24.449Z,16.99
2018-06-22T19:46:58.869Z,16.93
2018-06-22T19:50:34.610Z,16.79
2018-06-22T19:53:09.199Z,16.73
2018-06-22T19:55:38.367Z,16.76
2018-06-22T19:58:07.363Z,16.72
2018-06-22T20:00:37.315Z,16.62
2018-06-22T20:03:06.032Z,16.57
2018-06-22T20:05:35.095Z,16.62
2018-06-22T20:08:04.030Z,16.55
2018-06-22T20:10:32.960Z,16.51
2018-06-22T20:13:01.816Z,16.49
2018-06-22T20:15:30.921Z,16.48
2018-06-22T20:17:59.851Z,16.29
2018-06-22T20:20:28.948Z,16.37
2018-06-22T20:22:57.752Z,16.31
2018-06-22T20:25:31.583Z,16.50
2018-06-22T20:28:00.555Z,16.53
2018-06-22T20:30:29.871Z,16.52
2018-06-22T20:32:58.551Z,16.40
2018-06-22T20:35:32.973Z,16.31
2018-06-22T20:38:08.828Z,16.21
2018-06-22T20:40:43.030Z,16.28
2018-06-22T20:43:16.938Z,16.27
2018-06-22T20:45:52.277Z,16.28
2018-06-22T20:48:27.080Z,16.32
2018-06-22T20:50:55.936Z,16.19
2018-06-22T20:53:25.196Z,16.02
2018-06-22T20:55:55.636Z,16.09
2018-06-22T20:58:24.341Z,16.22
2018-06-22T21:00:53.097Z,16.23
2018-06-22T21:03:22.296Z,16.25
2018-06-22T21:05:51.158Z,16.28
2018-06-22T21:08:21.334Z,16.26
2018-06-22T21:10:50.482Z,16.21
2018-06-22T21:13:19.527Z,16.15
2018-06-22T21:15:49.039Z,16.21
2018-06-22T21:18:18.331Z,16.16
2018-06-22T21:20:52.189Z,16.19
2018-06-22T21:23:20.932Z,16.22
2018-06-22T21:25:49.761Z,16.25
2018-06-22T21:30:26.054Z,16.03
2018-06-22T21:32:59.949Z,16.00
2018-06-22T21:35:34.123Z,15.87
2018-06-22T21:38:08.179Z,15.97
2018-06-22T21:40:36.855Z,15.84
2018-06-22T21:43:07.457Z,15.90
2018-06-22T21:45:36.058Z,15.95
2018-06-22T21:48:04.788Z,15.91
2018-06-22T21:50:33.704Z,15.95
2018-06-22T21:53:03.009Z,15.77
2018-06-22T21:55:31.893Z,15.85
2018-06-22T21:58:00.656Z,15.93
2018-06-22T22:00:31.736Z,15.64
2018-06-22T22:03:02.157Z,15.78
2018-06-22T22:05:32.113Z,15.83
2018-06-22T22:08:00.977Z,15.87
2018-06-22T22:10:34.760Z,15.74
2018-06-22T22:13:03.455Z,15.65
2018-06-22T22:15:32.108Z,15.66
2018-06-22T22:18:02.335Z,15.55
2018-06-22T22:20:31.524Z,15.58
2018-06-22T22:23:00.978Z,15.66
2018-06-22T22:25:29.867Z,15.59
2018-06-22T22:27:58.478Z,15.39
2018-06-22T22:30:27.337Z,15.58
2018-06-22T22:32:56.238Z,15.55
2018-06-22T22:35:28.300Z,15.68
2018-06-22T22:37:56.884Z,15.58
2018-06-22T22:40:27.119Z,15.61
2018-06-22T22:42:55.720Z,15.58
2018-06-22T22:45:24.418Z,15.64
2018-06-22T22:47:53.061Z,15.52
2018-06-22T22:50:21.710Z,15.48
2018-06-22T22:52:50.665Z,15.39
2018-06-22T22:55:19.508Z,15.25
2018-06-22T22:57:48.433Z,15.18
2018-06-22T23:00:17.055Z,15.13
2018-06-22T23:02:46.689Z,14.88
2018-06-22T23:05:15.858Z,14.72
2018-06-22T23:07:44.580Z,14.75
2018-06-22T23:10:13.383Z,14.81
2018-06-22T23:12:43.830Z,14.89
2018-06-22T23:15:13.181Z,14.87
2018-06-22T23:17:42.190Z,15.03
2018-06-22T23:20:12.630Z,15.09
2018-06-22T23:22:52.600Z,15.21
2018-06-22T23:25:22.254Z,15.13
2018-06-22T23:27:51.502Z,14.67
2018-06-22T23:30:21.053Z,14.85
2018-06-22T23:32:50.511Z,14.97
2018-06-22T23:35:23.269Z,14.87
2018-06-22T23:37:53.425Z,14.94
2018-06-22T23:40:23.393Z,14.94
2018-06-22T23:42:52.541Z,14.80
2018-06-22T23:45:21.846Z,14.71
2018-06-22T23:47:52.099Z,14.67
2018-06-22T23:50:21.450Z,14.75
2018-06-22T23:52:50.897Z,14.85
2018-06-22T23:55:19.648Z,14.79
2018-06-22T23:57:49.785Z,14.46
